createdAt,value
2018-07-02T00:00:27.550Z,60.30
2018-07-02T00:01:27.705Z,60.68
2018-07-02T00:02:27.857Z,60.58
2018-07-02T00:03:28.007Z,60.33
2018-07-02T00:04:28.157Z,60.42
2018-07-02T00:05:28.312Z,60.23
2018-07-02T00:06:28.464Z,59.75
2018-07-02T00:07:28.617Z,59.66
2018-07-02T00:08:28.769Z,60.20
2018-07-02T00:09:28.922Z,60.58
2018-07-02T00:10:29.073Z,60.20
2018-07-02T00:11:29.259Z,60.58
2018-07-02T00:12:29.410Z,60.30
2018-07-02T00:13:29.560Z,60.30
2018-07-02T00:14:29.715Z,60.20
2018-07-02T00:15:29.868Z,60.58
2018-07-02T00:16:30.018Z,61.44
2018-07-02T00:17:30.172Z,61.72
2018-07-02T00:18:30.323Z,61.79
2018-07-02T00:19:30.476Z,62.18
2018-07-02T00:20:30.626Z,62.46
2018-07-02T00:21:30.777Z,62.94
2018-07-02T00:22:30.928Z,63.23
2018-07-02T00:23:31.078Z,63.03
2018-07-02T00:24:31.232Z,63.89
2018-07-02T00:25:31.384Z,63.60
2018-07-02T00:26:31.536Z,63.80
2018-07-02T00:27:31.689Z,63.51
2018-07-02T00:28:31.842Z,63.51
2018-07-02T00:29:31.993Z,63.89
2018-07-02T00:30:32.146Z,63.70
2018-07-02T00:31:32.295Z,63.99
2018-07-02T00:32:32.447Z,64.25
2018-07-02T00:33:32.601Z,64.25
2018-07-02T00:34:32.757Z,64.15
2018-07-02T00:35:32.909Z,64.81
2018-07-02T00:36:33.060Z,64.72
2018-07-02T00:37:33.214Z,64.72
2018-07-02T00:38:33.365Z,65.20
2018-07-02T00:39:33.518Z,65.01
2018-07-02T00:40:33.669Z,64.91
2018-07-02T00:41:33.822Z,64.91
2018-07-02T00:42:34.000Z,65.67
2018-07-02T00:43:34.122Z,66.35
2018-07-02T00:44:34.273Z,65.58
2018-07-02T00:45:34.427Z,66.15
2018-07-02T00:46:34.579Z,66.53
2018-07-02T00:47:34.730Z,66.98
2018-07-02T00:48:34.885Z,67.17
2018-07-02T00:49:35.032Z,67.07
2018-07-02T00:50:35.184Z,67.46
2018-07-02T00:51:35.336Z,67.55
2018-07-02T00:52:35.488Z,68.12
2018-07-02T00:53:35.640Z,68.03
2018-07-02T00:54:35.791Z,68.03
2018-07-02T00:55:35.942Z,67.17
2018-07-02T00:56:36.093Z,67.27
2018-07-02T00:57:36.243Z,68.32
2018-07-02T00:58:36.434Z,68.03
2018-07-02T00:59:36.552Z,67.93
2018-07-02T01:00:36.703Z,67.65
2018-07-02T01:01:36.856Z,68.98
2018-07-02T01:02:37.008Z,68.88
2018-07-02T01:03:37.167Z,69.65
2018-07-02T01:04:37.298Z,69.56
2018-07-02T01:05:37.449Z,69.17
2018-07-02T01:06:37.599Z,69.52
2018-07-02T01:07:37.753Z,69.62
2018-07-02T01:08:37.905Z,69.27
2018-07-02T01:09:38.056Z,69.74
2018-07-02T01:10:38.210Z,68.79
2018-07-02T01:11:38.364Z,68.88
2018-07-02T01:12:38.511Z,68.22
2018-07-02T01:13:38.663Z,68.41
2018-07-02T01:14:38.813Z,68.03
2018-07-02T01:15:38.965Z,68.12
2018-07-02T01:16:39.120Z,68.32
2018-07-02T01:17:39.268Z,68.70
2018-07-02T01:18:39.419Z,68.70
2018-07-02T01:19:39.569Z,68.22
2018-07-02T01:20:39.730Z,68.51
2018-07-02T01:21:39.879Z,68.32
2018-07-02T01:22:40.032Z,68.70
2018-07-02T01:23:40.182Z,68.51
2018-07-02T01:24:40.334Z,68.51
2018-07-02T01:25:40.486Z,68.85
2018-07-02T01:26:40.637Z,68.66
2018-07-02T01:27:40.789Z,69.23
2018-07-02T01:28:40.940Z,69.62
2018-07-02T01:29:41.092Z,69.52
2018-07-02T01:30:41.239Z,69.52
2018-07-02T01:31:41.394Z,69.52
2018-07-02T01:32:41.545Z,69.04
2018-07-02T01:33:41.698Z,69.37
2018-07-02T01:34:41.851Z,69.43
2018-07-02T01:35:42.001Z,69.52
2018-07-02T01:36:42.153Z,69.14
2018-07-02T01:37:42.301Z,69.43
2018-07-02T01:38:42.455Z,70.09
2018-07-02T01:39:42.606Z,70.76
2018-07-02T01:40:42.757Z,70.38
2018-07-02T01:41:42.909Z,71.14
2018-07-02T01:42:43.060Z,71.14
2018-07-02T01:43:43.214Z,71.30
2018-07-02T01:44:43.368Z,71.04
2018-07-02T01:45:43.523Z,71.33
2018-07-02T01:46:43.673Z,71.04
2018-07-02T01:47:43.825Z,71.01
2018-07-02T01:48:43.979Z,71.68
2018-07-02T01:49:44.128Z,71.68
2018-07-02T01:50:44.280Z,71.87
2018-07-02T01:51:44.432Z,71.77
2018-07-02T01:52:44.581Z,71.77
2018-07-02T01:53:44.734Z,72.16
2018-07-02T01:54:44.885Z,72.06
2018-07-02T01:55:45.034Z,71.77
2018-07-02T01:56:45.184Z,72.53
2018-07-02T01:57:45.336Z,72.34
2018-07-02T01:58:45.488Z,72.53
2018-07-02T01:59:45.638Z,72.25
2018-07-02T02:00:45.788Z,72.63
2018-07-02T02:01:45.943Z,72.63
2018-07-02T02:02:46.089Z,73.01
2018-07-02T02:03:46.243Z,73.49
2018-07-02T02:04:46.394Z,73.11
2018-07-02T02:05:46.545Z,73.21
2018-07-02T02:06:46.696Z,73.21
2018-07-02T02:07:46.844Z,73.30
2018-07-02T02:08:46.997Z,73.49
2018-07-02T02:09:47.146Z,73.77
2018-07-02T02:10:47.300Z,72.92
2018-07-02T02:11:47.450Z,73.58
2018-07-02T02:12:47.601Z,73.77
2018-07-02T02:13:47.753Z,73.68
2018-07-02T02:14:47.899Z,73.77
2018-07-02T02:15:48.055Z,73.58
2018-07-02T02:16:48.205Z,73.58
2018-07-02T02:17:48.355Z,73.68
2018-07-02T02:18:48.507Z,73.68
2018-07-02T02:19:48.658Z,73.68
2018-07-02T02:20:48.808Z,73.68
2018-07-02T02:21:48.961Z,74.16
2018-07-02T02:22:49.160Z,73.87
2018-07-02T02:23:49.266Z,74.16
2018-07-02T02:24:49.416Z,73.96
2018-07-02T02:25:49.569Z,73.87
2018-07-02T02:26:49.719Z,73.58
2018-07-02T02:27:49.868Z,73.21
2018-07-02T02:28:50.024Z,73.30
2018-07-02T02:29:50.169Z,73.49
2018-07-02T02:30:50.321Z,73.21
2018-07-02T02:31:50.475Z,73.11
2018-07-02T02:32:50.624Z,73.11
2018-07-02T02:33:50.773Z,73.30
2018-07-02T02:34:50.925Z,74.44
2018-07-02T02:35:51.075Z,74.54
2018-07-02T02:36:51.225Z,74.44
2018-07-02T02:37:51.376Z,74.69
2018-07-02T02:38:51.526Z,74.54
2018-07-02T02:39:51.680Z,74.25
2018-07-02T02:40:51.829Z,74.31
2018-07-02T02:41:51.980Z,75.93
2018-07-02T02:42:52.132Z,76.03
2018-07-02T02:43:52.281Z,76.21
2018-07-02T02:44:52.432Z,76.59
2018-07-02T02:45:52.585Z,76.79
2018-07-02T02:46:52.745Z,77.17
2018-07-02T02:47:52.897Z,77.55
2018-07-02T02:48:53.048Z,77.51
2018-07-02T02:49:53.195Z,77.74
2018-07-02T02:50:53.347Z,77.42
2018-07-02T02:51:53.500Z,77.89
2018-07-02T02:52:53.648Z,77.80
2018-07-02T02:53:53.800Z,77.98
2018-07-02T02:54:53.951Z,77.89
2018-07-02T02:55:54.102Z,77.98
2018-07-02T02:56:54.252Z,78.22
2018-07-02T02:57:54.402Z,78.50
2018-07-02T02:58:54.554Z,77.93
2018-07-02T02:59:54.705Z,77.17
2018-07-02T03:00:54.853Z,77.26
2018-07-02T03:01:55.006Z,77.36
2018-07-02T03:02:55.159Z,77.32
2018-07-02T03:03:55.310Z,77.42
2018-07-02T03:04:55.459Z,77.89
2018-07-02T03:05:55.607Z,77.74
2018-07-02T03:06:55.759Z,77.45
2018-07-02T03:07:55.915Z,77.42
2018-07-02T03:08:56.063Z,77.74
2018-07-02T03:09:56.216Z,77.70
2018-07-02T03:10:56.366Z,78.08
2018-07-02T03:11:56.531Z,78.27
2018-07-02T03:12:56.675Z,78.08
2018-07-02T03:13:56.817Z,77.93
2018-07-02T03:14:56.971Z,77.70
2018-07-02T03:15:57.122Z,77.51
2018-07-02T03:16:57.272Z,77.80
2018-07-02T03:17:57.422Z,78.27
2018-07-02T03:18:57.576Z,77.74
2018-07-02T03:19:57.727Z,77.93
2018-07-02T03:20:57.877Z,77.26
2018-07-02T03:21:58.026Z,77.26
2018-07-02T03:22:58.183Z,77.55
2018-07-02T03:23:58.331Z,77.26
2018-07-02T03:24:58.482Z,77.74
2018-07-02T03:25:58.634Z,77.26
2018-07-02T03:26:58.784Z,77.45
2018-07-02T03:27:58.937Z,77.26
2018-07-02T03:28:59.088Z,77.36
2018-07-02T03:29:59.238Z,77.80
2018-07-02T03:30:59.388Z,78.17
2018-07-02T03:31:59.539Z,78.17
2018-07-02T03:32:59.689Z,77.70
2018-07-02T03:33:59.840Z,77.98
2018-07-02T03:34:59.989Z,78.37
2018-07-02T03:36:00.142Z,78.17
2018-07-02T03:37:00.295Z,78.27
2018-07-02T03:38:00.442Z,78.75
2018-07-02T03:39:00.593Z,78.37
2018-07-02T03:40:00.746Z,79.22
2018-07-02T03:41:00.894Z,78.94
2018-07-02T03:42:01.048Z,78.56
2018-07-02T03:43:01.196Z,79.32
2018-07-02T03:44:01.349Z,79.22
2018-07-02T03:45:01.499Z,79.32
2018-07-02T03:46:01.649Z,79.32
2018-07-02T03:47:01.797Z,80.08
2018-07-02T03:48:01.948Z,79.80
2018-07-02T03:49:02.101Z,79.80
2018-07-02T03:50:02.248Z,80.27
2018-07-02T03:51:02.399Z,79.80
2018-07-02T03:52:02.550Z,79.51
2018-07-02T03:53:02.701Z,79.70
2018-07-02T03:54:02.852Z,79.41
2018-07-02T03:55:03.002Z,78.85
2018-07-02T03:56:03.153Z,79.22
2018-07-02T03:57:03.304Z,79.03
2018-07-02T03:58:03.453Z,78.94
2018-07-02T03:59:03.604Z,78.85
2018-07-02T04:00:03.758Z,79.03
2018-07-02T04:01:03.906Z,78.56
2018-07-02T04:02:04.056Z,78.31
2018-07-02T04:03:04.205Z,78.31
2018-07-02T04:04:04.357Z,78.12
2018-07-02T04:05:04.508Z,78.50
2018-07-02T04:06:04.660Z,78.22
2018-07-02T04:07:04.812Z,78.12
2018-07-02T04:08:04.963Z,77.64
2018-07-02T04:09:05.111Z,77.93
2018-07-02T04:10:05.263Z,77.93
2018-07-02T04:11:05.414Z,77.55
2018-07-02T04:12:05.609Z,77.45
2018-07-02T04:13:05.779Z,77.64
2018-07-02T04:14:05.867Z,77.17
2018-07-02T04:15:06.026Z,76.59
2018-07-02T04:16:06.167Z,76.50
2018-07-02T04:17:06.317Z,76.88
2018-07-02T04:18:06.469Z,76.40
2018-07-02T04:19:06.622Z,77.36
2018-07-02T04:20:06.772Z,76.88
2018-07-02T04:21:06.922Z,76.69
2018-07-02T04:22:07.077Z,77.07
2018-07-02T04:23:07.219Z,76.69
2018-07-02T04:24:07.385Z,76.50
2018-07-02T04:25:07.535Z,76.69
2018-07-02T04:26:07.690Z,76.73
2018-07-02T04:27:07.838Z,76.35
2018-07-02T04:28:07.992Z,76.35
2018-07-02T04:29:08.142Z,76.64
2018-07-02T04:30:08.294Z,76.06
2018-07-02T04:31:08.447Z,75.87
2018-07-02T04:32:08.595Z,75.96
2018-07-02T04:33:08.752Z,75.78
2018-07-02T04:34:08.913Z,75.40
2018-07-02T04:35:09.052Z,75.30
2018-07-02T04:36:09.204Z,75.53
2018-07-02T04:37:09.355Z,74.77
2018-07-02T04:38:09.514Z,74.38
2018-07-02T04:39:09.653Z,73.91
2018-07-02T04:40:09.802Z,72.99
2018-07-02T04:41:09.959Z,72.51
2018-07-02T04:42:10.109Z,72.23
2018-07-02T04:43:10.259Z,71.84
2018-07-02T04:44:10.407Z,72.03
2018-07-02T04:45:10.568Z,72.32
2018-07-02T04:46:10.714Z,72.32
2018-07-02T04:47:10.897Z,71.66
2018-07-02T04:48:11.012Z,71.18
2018-07-02T04:49:11.161Z,71.18
2018-07-02T04:50:11.317Z,70.98
2018-07-02T04:51:11.468Z,72.03
2018-07-02T04:52:11.618Z,71.18
2018-07-02T04:53:11.772Z,72.51
2018-07-02T04:54:11.921Z,72.89
2018-07-02T04:55:12.075Z,73.08
2018-07-02T04:56:12.227Z,72.89
2018-07-02T04:57:12.376Z,72.80
2018-07-02T04:58:12.545Z,73.08
2018-07-02T04:59:12.686Z,71.84
2018-07-02T05:00:12.844Z,71.84
2018-07-02T05:01:12.993Z,70.98
2018-07-02T05:02:13.144Z,71.08
2018-07-02T05:03:13.295Z,71.18
2018-07-02T05:04:13.453Z,70.61
2018-07-02T05:05:13.597Z,70.98
2018-07-02T05:06:13.750Z,70.92
2018-07-02T05:07:13.902Z,70.45
2018-07-02T05:08:14.053Z,70.54
2018-07-02T05:09:14.210Z,70.07
2018-07-02T05:10:14.357Z,70.07
2018-07-02T05:11:14.506Z,69.97
2018-07-02T05:12:14.654Z,69.87
2018-07-02T05:13:14.807Z,69.59
2018-07-02T05:14:14.959Z,69.21
2018-07-02T05:15:15.110Z,69.59
2018-07-02T05:16:15.274Z,69.31
2018-07-02T05:17:15.416Z,69.21
2018-07-02T05:18:15.567Z,69.82
2018-07-02T05:19:15.879Z,68.92
2018-07-02T05:20:15.873Z,68.96
2018-07-02T05:21:16.023Z,68.86
2018-07-02T05:22:16.178Z,68.67
2018-07-02T05:23:16.327Z,68.19
2018-07-02T05:24:16.482Z,67.81
2018-07-02T05:25:16.639Z,68.00
2018-07-02T05:26:16.788Z,67.43
2018-07-02T05:27:16.937Z,67.43
2018-07-02T05:28:17.090Z,67.43
2018-07-02T05:29:17.243Z,67.18
2018-07-02T05:30:17.395Z,66.50
2018-07-02T05:31:17.592Z,66.50
2018-07-02T05:32:17.700Z,66.13
2018-07-02T05:33:17.851Z,65.55
2018-07-02T05:34:18.001Z,65.84
2018-07-02T05:35:18.153Z,65.93
2018-07-02T05:36:18.306Z,65.77
2018-07-02T05:37:18.457Z,64.98
2018-07-02T05:38:18.611Z,65.39
2018-07-02T05:39:18.766Z,66.25
2018-07-02T05:40:18.917Z,64.91
2018-07-02T05:41:19.073Z,64.15
2018-07-02T05:42:19.222Z,64.25
2018-07-02T05:43:19.378Z,64.15
2018-07-02T05:44:19.532Z,64.82
2018-07-02T05:45:19.684Z,64.72
2018-07-02T05:46:19.837Z,64.05
2018-07-02T05:47:19.989Z,64.25
2018-07-02T05:48:20.142Z,63.67
2018-07-02T05:49:20.296Z,63.67
2018-07-02T05:50:20.449Z,63.60
2018-07-02T05:51:20.602Z,63.13
2018-07-02T05:52:20.754Z,62.55
2018-07-02T05:53:20.911Z,62.84
2018-07-02T05:54:21.062Z,61.88
2018-07-02T05:55:21.213Z,61.69
2018-07-02T05:56:21.366Z,62.17
2018-07-02T05:57:21.520Z,62.37
2018-07-02T05:58:21.675Z,62.74
2018-07-02T05:59:21.827Z,62.37
2018-07-02T06:00:22.094Z,61.31
2018-07-02T06:01:22.136Z,61.41
2018-07-02T06:02:22.288Z,61.02
2018-07-02T06:03:22.438Z,61.98
2018-07-02T06:04:22.596Z,62.68
2018-07-02T06:05:22.747Z,61.44
2018-07-02T06:06:22.899Z,60.48
2018-07-02T06:07:23.053Z,61.15
2018-07-02T06:08:23.204Z,60.38
2018-07-02T06:09:23.359Z,60.58
2018-07-02T06:10:23.523Z,60.29
2018-07-02T06:11:23.861Z,60.19
2018-07-02T06:12:23.815Z,60.29
2018-07-02T06:13:23.976Z,60.51
2018-07-02T06:14:24.122Z,59.81
2018-07-02T06:15:24.274Z,59.27
2018-07-02T06:16:24.449Z,59.36
2018-07-02T06:17:24.583Z,59.17
2018-07-02T06:18:24.737Z,58.98
2018-07-02T06:19:24.892Z,59.84
2018-07-02T06:20:25.042Z,59.55
2018-07-02T06:21:25.197Z,59.55
2018-07-02T06:22:25.349Z,59.08
2018-07-02T06:23:25.502Z,59.20
2018-07-02T06:24:25.655Z,59.30
2018-07-02T06:25:25.811Z,58.91
2018-07-02T06:26:25.965Z,58.24
2018-07-02T06:27:26.115Z,58.62
2018-07-02T06:28:26.272Z,58.81
2018-07-02T06:29:26.424Z,58.44
2018-07-02T06:30:26.585Z,58.75
2018-07-02T06:31:26.730Z,58.17
2018-07-02T06:32:26.883Z,58.37
2018-07-02T06:33:27.041Z,57.89
2018-07-02T06:34:27.190Z,57.60
2018-07-02T06:35:27.347Z,57.43
2018-07-02T06:36:27.498Z,57.43
2018-07-02T06:37:27.652Z,56.09
2018-07-02T06:38:27.806Z,56.48
2018-07-02T06:39:27.961Z,56.35
2018-07-02T06:40:28.116Z,56.48
2018-07-02T06:41:28.269Z,57.15
2018-07-02T06:42:28.422Z,57.24
2018-07-02T06:43:28.578Z,57.15
2018-07-02T06:44:28.733Z,55.90
2018-07-02T06:45:28.885Z,55.52
2018-07-02T06:46:29.040Z,55.74
2018-07-02T06:47:29.194Z,55.55
2018-07-02T06:48:29.388Z,55.16
2018-07-02T06:49:29.500Z,54.68
2018-07-02T06:50:29.655Z,54.68
2018-07-02T06:51:29.810Z,54.58
2018-07-02T06:52:29.964Z,54.56
2018-07-02T06:53:30.119Z,54.39
2018-07-02T06:54:30.273Z,54.49
2018-07-02T06:55:30.429Z,54.30
2018-07-02T06:56:30.583Z,54.68
2018-07-02T06:57:30.739Z,53.44
2018-07-02T06:58:30.892Z,52.86
2018-07-02T06:59:31.046Z,53.24
2018-07-02T07:00:31.200Z,54.23
2018-07-02T07:01:31.358Z,53.36
2018-07-02T07:02:31.512Z,54.71
2018-07-02T07:03:31.668Z,54.06
2018-07-02T07:04:31.824Z,53.11
2018-07-02T07:05:31.978Z,53.58
2018-07-02T07:06:32.131Z,52.81
2018-07-02T07:07:32.287Z,52.53
2018-07-02T07:08:32.457Z,52.34
2018-07-02T07:09:32.598Z,51.67
2018-07-02T07:10:32.762Z,52.05
2018-07-02T07:11:32.908Z,51.95
2018-07-02T07:12:33.063Z,52.14
2018-07-02T07:13:33.226Z,52.24
2018-07-02T07:14:33.379Z,53.11
2018-07-02T07:15:33.551Z,52.62
2018-07-02T07:16:33.688Z,52.26
2018-07-02T07:17:33.852Z,51.50
2018-07-02T07:18:33.997Z,51.40
2018-07-02T07:19:34.156Z,52.17
2018-07-02T07:20:34.310Z,51.59
2018-07-02T07:21:34.462Z,50.44
2018-07-02T07:22:34.616Z,50.05
2018-07-02T07:23:34.770Z,51.40
2018-07-02T07:24:34.927Z,51.53
2018-07-02T07:25:35.085Z,50.95
2018-07-02T07:26:35.240Z,49.89
2018-07-02T07:27:35.431Z,50.46
2018-07-02T07:28:35.550Z,51.14
2018-07-02T07:29:35.707Z,49.89
2018-07-02T07:30:35.879Z,48.93
2018-07-02T07:31:36.035Z,49.99
2018-07-02T07:32:36.188Z,49.02
2018-07-02T07:33:36.342Z,48.64
2018-07-02T07:34:36.499Z,48.83
2018-07-02T07:35:36.658Z,48.64
2018-07-02T07:36:36.813Z,48.76
2018-07-02T07:37:36.969Z,48.66
2018-07-02T07:38:37.125Z,48.28
2018-07-02T07:39:37.285Z,48.21
2018-07-02T07:40:37.479Z,47.82
2018-07-02T07:41:37.608Z,46.77
2018-07-02T07:42:37.767Z,46.57
2018-07-02T07:43:37.920Z,46.59
2018-07-02T07:44:38.074Z,46.28
2018-07-02T07:45:38.231Z,45.83
2018-07-02T07:46:38.386Z,44.67
2018-07-02T07:47:38.546Z,43.13
2018-07-02T07:48:38.698Z,42.74
2018-07-02T07:49:38.858Z,41.80
2018-07-02T07:50:39.013Z,41.13
2018-07-02T07:51:39.170Z,40.55
2018-07-02T07:52:39.324Z,39.78
2018-07-02T07:53:39.480Z,39.89
2018-07-02T07:54:39.638Z,39.68
2018-07-02T07:55:39.793Z,39.78
2018-07-02T07:56:39.950Z,39.31
2018-07-02T07:57:40.107Z,39.41
2018-07-02T07:58:40.265Z,38.35
2018-07-02T07:59:40.423Z,37.77
2018-07-02T08:00:40.579Z,37.96
2018-07-02T08:01:40.735Z,37.39
2018-07-02T08:02:40.893Z,38.28
2018-07-02T08:03:41.073Z,37.31
2018-07-02T08:04:41.204Z,36.91
2018-07-02T08:05:41.365Z,37.58
2018-07-02T08:06:41.519Z,37.58
2018-07-02T08:07:41.675Z,36.61
2018-07-02T08:08:41.834Z,36.44
2018-07-02T08:09:41.992Z,36.52
2018-07-02T08:10:42.147Z,36.81
2018-07-02T08:11:42.304Z,37.02
2018-07-02T08:12:42.461Z,36.61
2018-07-02T08:13:42.617Z,37.50
2018-07-02T08:14:42.776Z,37.31
2018-07-02T08:15:42.931Z,36.73
2018-07-02T08:16:43.089Z,36.71
2018-07-02T08:17:43.246Z,36.91
2018-07-02T08:18:43.403Z,36.71
2018-07-02T08:19:43.559Z,37.01
2018-07-02T08:20:43.720Z,37.02
2018-07-02T08:21:43.879Z,37.12
2018-07-02T08:22:44.036Z,37.12
2018-07-02T08:23:44.191Z,36.63
2018-07-02T08:24:44.351Z,36.93
2018-07-02T08:25:44.512Z,37.02
2018-07-02T08:26:44.673Z,36.93
2018-07-02T08:27:44.831Z,36.73
2018-07-02T08:28:44.989Z,37.02
2018-07-02T08:29:45.149Z,37.02
2018-07-02T08:30:45.313Z,36.44
2018-07-02T08:31:45.464Z,36.85
2018-07-02T08:32:45.662Z,36.65
2018-07-02T08:33:45.779Z,36.55
2018-07-02T08:34:45.936Z,36.85
2018-07-02T08:35:46.094Z,36.55
2018-07-02T08:36:46.249Z,36.75
2018-07-02T08:37:46.409Z,36.55
2018-07-02T08:38:46.567Z,36.65
2018-07-02T08:39:46.723Z,36.67
2018-07-02T08:40:46.886Z,36.57
2018-07-02T08:41:47.046Z,35.80
2018-07-02T08:42:47.204Z,35.52
2018-07-02T08:43:47.361Z,35.71
2018-07-02T08:44:47.521Z,36.67
2018-07-02T08:45:47.680Z,35.80
2018-07-02T08:46:47.891Z,35.71
2018-07-02T08:47:47.997Z,35.90
2018-07-02T08:48:48.158Z,35.52
2018-07-02T08:49:48.311Z,35.90
2018-07-02T08:50:48.470Z,35.22
2018-07-02T08:51:48.630Z,35.90
2018-07-02T08:52:48.809Z,35.42
2018-07-02T08:53:48.945Z,35.44
2018-07-02T08:54:49.104Z,36.00
2018-07-02T08:55:49.263Z,35.80
2018-07-02T08:56:49.421Z,36.59
2018-07-02T08:57:49.580Z,36.00
2018-07-02T08:58:49.737Z,35.80
2018-07-02T08:59:49.893Z,36.48
2018-07-02T09:00:50.052Z,36.67
2018-07-02T09:01:50.210Z,36.38
2018-07-02T09:02:50.366Z,36.48
2018-07-02T09:03:50.524Z,37.27
2018-07-02T09:04:50.682Z,36.11
2018-07-02T09:05:50.844Z,36.29
2018-07-02T09:06:51.022Z,36.87
2018-07-02T09:07:51.160Z,37.15
2018-07-02T09:08:51.318Z,37.56
2018-07-02T09:09:51.476Z,38.04
2018-07-02T09:10:51.633Z,37.27
2018-07-02T09:11:51.798Z,37.27
2018-07-02T09:12:51.951Z,37.56
2018-07-02T09:13:52.111Z,37.08
2018-07-02T09:14:52.271Z,36.67
2018-07-02T09:15:52.430Z,35.90
2018-07-02T09:16:52.598Z,36.57
2018-07-02T09:17:52.747Z,36.69
2018-07-02T09:18:52.905Z,36.09
2018-07-02T09:19:53.063Z,36.87
2018-07-02T09:20:53.227Z,37.06
2018-07-02T09:21:53.384Z,36.96
2018-07-02T09:22:53.547Z,37.46
2018-07-02T09:23:53.743Z,37.17
2018-07-02T09:24:53.866Z,36.40
2018-07-02T09:25:54.026Z,36.13
2018-07-02T09:26:54.189Z,36.13
2018-07-02T09:27:54.345Z,35.45
2018-07-02T09:28:54.510Z,34.58
2018-07-02T09:29:54.689Z,34.68
2018-07-02T09:30:54.828Z,35.55
2018-07-02T09:31:54.987Z,35.64
2018-07-02T09:32:55.151Z,35.36
2018-07-02T09:33:55.307Z,34.58
2018-07-02T09:34:55.469Z,34.76
2018-07-02T09:35:55.627Z,34.66
2018-07-02T09:36:55.790Z,34.66
2018-07-02T09:37:55.947Z,35.24
2018-07-02T09:38:56.107Z,34.86
2018-07-02T09:39:56.264Z,34.68
2018-07-02T09:40:56.424Z,34.29
2018-07-02T09:41:56.583Z,34.78
2018-07-02T09:42:56.745Z,34.68
2018-07-02T09:43:56.901Z,34.50
2018-07-02T09:44:57.061Z,34.39
2018-07-02T09:45:57.221Z,33.91
2018-07-02T09:46:57.378Z,34.20
2018-07-02T09:47:57.536Z,34.68
2018-07-02T09:48:57.693Z,34.58
2018-07-02T09:49:57.853Z,34.68
2018-07-02T09:50:58.242Z,34.31
2018-07-02T09:51:58.399Z,33.63
2018-07-02T09:52:58.336Z,33.63
2018-07-02T09:53:58.496Z,33.73
2018-07-02T09:54:58.657Z,34.02
2018-07-02T09:55:58.818Z,33.75
2018-07-02T09:56:58.973Z,33.44
2018-07-02T09:57:59.131Z,33.25
2018-07-02T09:58:59.293Z,34.02
2018-07-02T09:59:59.451Z,33.44
2018-07-02T10:00:59.615Z,33.75
2018-07-02T10:01:59.771Z,33.44
2018-07-02T10:02:59.935Z,33.17
2018-07-02T10:04:00.102Z,33.26
2018-07-02T10:05:00.250Z,33.45
2018-07-02T10:06:00.411Z,32.87
2018-07-02T10:07:00.569Z,33.26
2018-07-02T10:08:00.729Z,33.26
2018-07-02T10:09:00.893Z,32.96
2018-07-02T10:10:01.049Z,32.96
2018-07-02T10:11:01.214Z,33.15
2018-07-02T10:12:01.368Z,33.34
2018-07-02T10:13:01.528Z,33.15
2018-07-02T10:14:01.685Z,33.44
2018-07-02T10:15:01.846Z,33.36
2018-07-02T10:16:02.006Z,32.97
2018-07-02T10:17:02.164Z,33.18
2018-07-02T10:18:02.322Z,32.29
2018-07-02T10:19:02.483Z,32.10
2018-07-02T10:20:02.646Z,32.68
2018-07-02T10:21:02.801Z,32.68
2018-07-02T10:22:02.964Z,32.70
2018-07-02T10:23:03.121Z,31.83
2018-07-02T10:24:03.279Z,32.01
2018-07-02T10:25:03.438Z,32.59
2018-07-02T10:26:03.603Z,32.49
2018-07-02T10:27:03.759Z,32.49
2018-07-02T10:28:03.922Z,32.31
2018-07-02T10:29:04.116Z,31.73
2018-07-02T10:30:04.240Z,32.21
2018-07-02T10:31:04.425Z,31.34
2018-07-02T10:32:04.559Z,30.96
2018-07-02T10:33:04.719Z,30.96
2018-07-02T10:34:04.881Z,31.43
2018-07-02T10:35:05.039Z,31.62
2018-07-02T10:36:05.200Z,31.44
2018-07-02T10:37:05.361Z,31.83
2018-07-02T10:38:05.521Z,31.73
2018-07-02T10:39:05.686Z,31.25
2018-07-02T10:40:05.839Z,30.76
2018-07-02T10:41:05.998Z,31.74
2018-07-02T10:42:06.163Z,30.98
2018-07-02T10:43:06.323Z,30.98
2018-07-02T10:44:06.482Z,30.49
2018-07-02T10:45:06.644Z,30.38
2018-07-02T10:46:06.806Z,31.05
2018-07-02T10:47:07.004Z,30.18
2018-07-02T10:48:07.123Z,30.66
2018-07-02T10:49:07.287Z,30.78
2018-07-02T10:50:07.445Z,29.80
2018-07-02T10:51:07.606Z,30.38
2018-07-02T10:52:07.770Z,29.90
2018-07-02T10:53:07.929Z,30.08
2018-07-02T10:54:08.086Z,30.49
2018-07-02T10:55:08.249Z,30.29
2018-07-02T10:56:08.410Z,29.52
2018-07-02T10:57:08.571Z,29.12
2018-07-02T10:58:08.732Z,29.71
2018-07-02T10:59:08.893Z,29.61
2018-07-02T11:00:09.054Z,29.83
2018-07-02T11:01:09.213Z,29.33
2018-07-02T11:02:09.375Z,30.02
2018-07-02T11:03:09.535Z,29.24
2018-07-02T11:04:09.696Z,29.73
2018-07-02T11:05:09.862Z,29.53
2018-07-02T11:06:10.020Z,29.83
2018-07-02T11:07:10.182Z,29.05
2018-07-02T11:08:10.340Z,28.38
2018-07-02T11:09:10.502Z,28.86
2018-07-02T11:10:10.663Z,28.86
2018-07-02T11:11:10.873Z,27.79
2018-07-02T11:12:10.983Z,28.56
2018-07-02T11:13:11.144Z,28.47
2018-07-02T11:14:11.305Z,27.89
2018-07-02T11:15:11.474Z,27.97
2018-07-02T11:16:11.625Z,27.76
2018-07-02T11:17:11.854Z,27.57
2018-07-02T11:18:11.952Z,27.47
2018-07-02T11:19:12.112Z,27.96
2018-07-02T11:20:12.271Z,28.55
2018-07-02T11:21:12.432Z,28.28
2018-07-02T11:22:12.591Z,27.31
2018-07-02T11:23:12.739Z,27.60
2018-07-02T11:24:12.905Z,27.79
2018-07-02T11:25:13.062Z,28.00
2018-07-02T11:26:13.227Z,27.40
2018-07-02T11:27:13.384Z,27.79
2018-07-02T11:28:13.546Z,27.81
2018-07-02T11:29:13.707Z,26.85
2018-07-02T11:30:13.876Z,25.88
2018-07-02T11:31:14.028Z,26.65
2018-07-02T11:32:14.190Z,26.17
2018-07-02T11:33:14.350Z,28.02
2018-07-02T11:34:14.510Z,27.82
2018-07-02T11:35:14.669Z,26.37
2018-07-02T11:36:14.832Z,26.46
2018-07-02T11:37:14.995Z,26.56
2018-07-02T11:38:15.155Z,26.75
2018-07-02T11:39:15.316Z,28.20
2018-07-02T11:40:15.490Z,26.85
2018-07-02T11:41:15.636Z,25.87
2018-07-02T11:42:15.796Z,26.16
2018-07-02T11:43:15.956Z,26.26
2018-07-02T11:44:16.125Z,26.54
2018-07-02T11:45:16.283Z,26.93
2018-07-02T11:46:16.443Z,27.14
2018-07-02T11:47:16.607Z,26.85
2018-07-02T11:48:16.767Z,26.38
2018-07-02T11:49:16.928Z,26.07
2018-07-02T11:50:17.090Z,26.95
2018-07-02T11:51:17.252Z,25.59
2018-07-02T11:52:17.410Z,25.40
2018-07-02T11:53:17.571Z,26.07
2018-07-02T11:54:17.734Z,26.56
2018-07-02T11:55:17.894Z,26.75
2018-07-02T11:56:18.054Z,26.56
2018-07-02T11:57:18.222Z,26.27
2018-07-02T11:58:18.377Z,26.46
2018-07-02T11:59:18.538Z,27.04
2018-07-02T12:00:18.699Z,27.82
2018-07-02T12:01:18.864Z,27.24
2018-07-02T12:02:19.025Z,25.98
2018-07-02T12:03:19.185Z,26.74
2018-07-02T12:04:19.402Z,26.35
2018-07-02T12:05:19.511Z,25.76
2018-07-02T12:06:19.672Z,24.88
2018-07-02T12:07:19.834Z,26.73
2018-07-02T12:08:19.993Z,27.13
2018-07-02T12:09:20.154Z,26.27
2018-07-02T12:10:20.314Z,26.37
2018-07-02T12:11:20.476Z,26.07
2018-07-02T12:12:20.637Z,26.37
2018-07-02T12:13:20.802Z,25.59
2018-07-02T12:14:20.965Z,25.79
2018-07-02T12:15:21.164Z,24.83
2018-07-02T12:16:21.295Z,24.15
2018-07-02T12:17:21.457Z,25.60
2018-07-02T12:18:21.619Z,26.20
2018-07-02T12:19:21.781Z,25.71
2018-07-02T12:20:21.939Z,25.42
2018-07-02T12:21:22.102Z,25.13
2018-07-02T12:22:22.268Z,25.23
2018-07-02T12:23:22.425Z,25.12
2018-07-02T12:24:22.586Z,25.01
2018-07-02T12:25:22.748Z,24.05
2018-07-02T12:26:22.910Z,24.83
2018-07-02T12:27:23.071Z,24.99
2018-07-02T12:28:23.232Z,25.77
2018-07-02T12:29:23.392Z,27.04
2018-07-02T12:30:23.559Z,25.49
2018-07-02T12:31:23.719Z,26.17
2018-07-02T12:32:23.879Z,25.88
2018-07-02T12:33:24.053Z,25.38
2018-07-02T12:34:24.213Z,25.47
2018-07-02T12:35:24.365Z,26.54
2018-07-02T12:36:24.527Z,26.35
2018-07-02T12:37:24.687Z,27.14
2018-07-02T12:38:24.849Z,25.48
2018-07-02T12:39:25.010Z,25.78
2018-07-02T12:40:25.169Z,24.98
2018-07-02T12:41:25.331Z,25.98
2018-07-02T12:42:25.494Z,25.78
2018-07-02T12:43:25.654Z,25.01
2018-07-02T12:44:25.821Z,25.99
2018-07-02T12:45:25.980Z,25.89
2018-07-02T12:46:26.141Z,25.02
2018-07-02T12:47:26.311Z,24.74
2018-07-02T12:48:26.460Z,25.12
2018-07-02T12:49:26.625Z,24.44
2018-07-02T12:50:26.785Z,25.89
2018-07-02T12:51:26.947Z,25.60
2018-07-02T12:52:27.110Z,24.92
2018-07-02T12:53:27.269Z,25.23
2018-07-02T12:54:27.587Z,26.70